sensor_id;sensor_type;location;lat;lon;timestamp;P1;durP1;ratioP1;P2;durP2;ratioP2
46290;SDS011;32023;44.444;26.006;2023-01-08T00:01:08;64.68;;;32.80;;
46290;SDS011;32023;44.444;26.006;2023-01-08T00:03:36;58.00;;;33.13;;
46290;SDS011;32023;44.444;26.006;2023-01-08T00:06:04;59.67;;;32.80;;
46290;SDS011;32023;44.444;26.006;2023-01-08T00:08:35;66.93;;;35.22;;
46290;SDS011;32023;44.444;26.006;2023-01-08T00:11:01;54.80;;;30.92;;
46290;SDS011;32023;44.444;26.006;2023-01-08T00:13:28;59.65;;;31.90;;
46290;SDS011;32023;44.444;26.006;2023-01-08T00:15:54;58.78;;;30.55;;
46290;SDS011;32023;44.444;26.006;2023-01-08T00:18:20;54.53;;;30.77;;
46290;SDS011;32023;44.444;26.006;2023-01-08T00:20:48;60.22;;;31.00;;
46290;SDS011;32023;44.444;26.006;2023-01-08T00:23:15;56.17;;;32.65;;
46290;SDS011;32023;44.444;26.006;2023-01-08T00:25:42;57.08;;;31.52;;
46290;SDS011;32023;44.444;26.006;2023-01-08T00:28:09;59.60;;;31.13;;
46290;SDS011;32023;44.444;26.006;2023-01-08T00:30:36;59.85;;;32.33;;
46290;SDS011;32023;44.444;26.006;2023-01-08T00:33:04;62.92;;;31.73;;
46290;SDS011;32023;44.444;26.006;2023-01-08T00:35:31;58.60;;;32.75;;
46290;SDS011;32023;44.444;26.006;2023-01-08T00:37:57;55.00;;;30.40;;
46290;SDS011;32023;44.444;26.006;2023-01-08T00:40:23;55.47;;;30.30;;
46290;SDS011;32023;44.444;26.006;2023-01-08T00:42:49;50.22;;;28.45;;
46290;SDS011;32023;44.444;26.006;2023-01-08T00:45:16;47.72;;;26.63;;
46290;SDS011;32023;44.444;26.006;2023-01-08T00:47:42;55.00;;;28.92;;
46290;SDS011;32023;44.444;26.006;2023-01-08T00:50:09;50.33;;;28.27;;
46290;SDS011;32023;44.444;26.006;2023-01-08T00:52:35;55.60;;;29.13;;
46290;SDS011;32023;44.444;26.006;2023-01-08T00:55:02;50.20;;;28.30;;
46290;SDS011;32023;44.444;26.006;2023-01-08T00:57:32;50.30;;;28.38;;
46290;SDS011;32023;44.444;26.006;2023-01-08T00:59:59;52.38;;;28.05;;
46290;SDS011;32023;44.444;26.006;2023-01-08T01:02:28;52.92;;;28.55;;
46290;SDS011;32023;44.444;26.006;2023-01-08T01:04:54;58.95;;;29.27;;
46290;SDS011;32023;44.444;26.006;2023-01-08T01:07:20;53.17;;;29.15;;
46290;SDS011;32023;44.444;26.006;2023-01-08T01:09:46;50.22;;;28.02;;
46290;SDS011;32023;44.444;26.006;2023-01-08T01:12:13;53.38;;;29.10;;
46290;SDS011;32023;44.444;26.006;2023-01-08T01:14:39;49.53;;;27.55;;
46290;SDS011;32023;44.444;26.006;2023-01-08T01:17:05;49.50;;;28.73;;
46290;SDS011;32023;44.444;26.006;2023-01-08T01:19:35;51.88;;;28.05;;
46290;SDS011;32023;44.444;26.006;2023-01-08T01:22:01;53.15;;;28.83;;
46290;SDS011;32023;44.444;26.006;2023-01-08T01:24:28;50.00;;;28.67;;
46290;SDS011;32023;44.444;26.006;2023-01-08T01:26:54;58.92;;;29.50;;
46290;SDS011;32023;44.444;26.006;2023-01-08T01:29:22;53.30;;;28.55;;
46290;SDS011;32023;44.444;26.006;2023-01-08T01:31:48;50.72;;;28.02;;
46290;SDS011;32023;44.444;26.006;2023-01-08T01:34:14;49.25;;;28.55;;
46290;SDS011;32023;44.444;26.006;2023-01-08T01:36:41;46.08;;;27.42;;
46290;SDS011;32023;44.444;26.006;2023-01-08T01:39:07;46.65;;;28.05;;
46290;SDS011;32023;44.444;26.006;2023-01-08T01:46:59;48.20;;;26.27;;
46290;SDS011;32023;44.444;26.006;2023-01-08T01:49:46;53.05;;;27.67;;
46290;SDS011;32023;44.444;26.006;2023-01-08T01:52:41;53.70;;;28.20;;
46290;SDS011;32023;44.444;26.006;2023-01-08T01:55:12;45.28;;;27.15;;
46290;SDS011;32023;44.444;26.006;2023-01-08T01:57:41;43.72;;;25.58;;
46290;SDS011;32023;44.444;26.006;2023-01-08T02:00:15;49.28;;;25.40;;
46290;SDS011;32023;44.444;26.006;2023-01-08T02:02:42;49.22;;;28.33;;
46290;SDS011;32023;44.444;26.006;2023-01-08T02:05:09;45.85;;;25.75;;
46290;SDS011;32023;44.444;26.006;2023-01-08T02:10:19;48.33;;;26.67;;
46290;SDS011;32023;44.444;26.006;2023-01-08T02:12:47;46.53;;;26.10;;
46290;SDS011;32023;44.444;26.006;2023-01-08T02:15:20;43.90;;;24.85;;
46290;SDS011;32023;44.444;26.006;2023-01-08T02:18:16;42.97;;;26.05;;
46290;SDS011;32023;44.444;26.006;2023-01-08T02:21:04;42.05;;;24.83;;
46290;SDS011;32023;44.444;26.006;2023-01-08T02:26:35;48.63;;;26.73;;
46290;SDS011;32023;44.444;26.006;2023-01-08T02:29:06;45.03;;;26.25;;
46290;SDS011;32023;44.444;26.006;2023-01-08T02:31:44;41.92;;;25.15;;
46290;SDS011;32023;44.444;26.006;2023-01-08T02:34:11;45.83;;;25.42;;
46290;SDS011;32023;44.444;26.006;2023-01-08T02:45:53;37.10;;;22.27;;
46290;SDS011;32023;44.444;26.006;2023-01-08T02:50:55;43.65;;;24.52;;
46290;SDS011;32023;44.444;26.006;2023-01-08T02:53:31;38.65;;;23.02;;
46290;SDS011;32023;44.444;26.006;2023-01-08T02:58:36;40.25;;;23.40;;
46290;SDS011;32023;44.444;26.006;2023-01-08T03:01:06;40.03;;;23.60;;
46290;SDS011;32023;44.444;26.006;2023-01-08T03:03:34;39.63;;;22.48;;
46290;SDS011;32023;44.444;26.006;2023-01-08T03:06:05;43.80;;;23.98;;
46290;SDS011;32023;44.444;26.006;2023-01-08T03:08:36;37.95;;;22.98;;
46290;SDS011;32023;44.444;26.006;2023-01-08T03:11:16;38.78;;;23.40;;
46290;SDS011;32023;44.444;26.006;2023-01-08T03:13:55;44.10;;;24.08;;
46290;SDS011;32023;44.444;26.006;2023-01-08T03:16:36;38.38;;;21.65;;
46290;SDS011;32023;44.444;26.006;2023-01-08T03:19:18;39.00;;;22.92;;
46290;SDS011;32023;44.444;26.006;2023-01-08T03:21:50;42.05;;;23.05;;
46290;SDS011;32023;44.444;26.006;2023-01-08T03:24:33;41.28;;;23.90;;
46290;SDS011;32023;44.444;26.006;2023-01-08T03:27:03;36.50;;;21.67;;
46290;SDS011;32023;44.444;26.006;2023-01-08T03:29:32;40.50;;;23.25;;
46290;SDS011;32023;44.444;26.006;2023-01-08T03:32:03;39.33;;;22.45;;
46290;SDS011;32023;44.444;26.006;2023-01-08T03:34:34;38.92;;;22.35;;
46290;SDS011;32023;44.444;26.006;2023-01-08T03:37:05;39.75;;;22.42;;
46290;SDS011;32023;44.444;26.006;2023-01-08T03:39:44;39.45;;;23.17;;
46290;SDS011;32023;44.444;26.006;2023-01-08T03:42:15;36.92;;;21.38;;
46290;SDS011;32023;44.444;26.006;2023-01-08T03:44:43;40.75;;;22.65;;
46290;SDS011;32023;44.444;26.006;2023-01-08T03:47:10;41.70;;;24.13;;
46290;SDS011;32023;44.444;26.006;2023-01-08T03:49:37;39.83;;;22.65;;
46290;SDS011;32023;44.444;26.006;2023-01-08T03:52:07;41.42;;;22.98;;
46290;SDS011;32023;44.444;26.006;2023-01-08T03:54:34;43.70;;;23.20;;
46290;SDS011;32023;44.444;26.006;2023-01-08T03:57:01;44.17;;;23.90;;
46290;SDS011;32023;44.444;26.006;2023-01-08T03:59:27;43.67;;;25.02;;
46290;SDS011;32023;44.444;26.006;2023-01-08T04:01:54;43.95;;;24.15;;
46290;SDS011;32023;44.444;26.006;2023-01-08T04:04:20;41.03;;;22.70;;
46290;SDS011;32023;44.444;26.006;2023-01-08T04:06:46;42.88;;;23.80;;
46290;SDS011;32023;44.444;26.006;2023-01-08T04:09:13;39.03;;;21.48;;
46290;SDS011;32023;44.444;26.006;2023-01-08T04:11:39;37.55;;;22.52;;
46290;SDS011;32023;44.444;26.006;2023-01-08T04:14:06;38.75;;;22.40;;
46290;SDS011;32023;44.444;26.006;2023-01-08T04:16:32;40.42;;;23.02;;
46290;SDS011;32023;44.444;26.006;2023-01-08T04:18:58;38.78;;;22.73;;
46290;SDS011;32023;44.444;26.006;2023-01-08T04:21:25;39.85;;;23.33;;
46290;SDS011;32023;44.444;26.006;2023-01-08T04:23:51;38.75;;;22.25;;
46290;SDS011;32023;44.444;26.006;2023-01-08T04:26:18;39.17;;;23.48;;
46290;SDS011;32023;44.444;26.006;2023-01-08T04:28:44;38.40;;;22.67;;
46290;SDS011;32023;44.444;26.006;2023-01-08T04:31:10;40.08;;;23.48;;
46290;SDS011;32023;44.444;26.006;2023-01-08T04:33:37;38.78;;;22.83;;
46290;SDS011;32023;44.444;26.006;2023-01-08T04:36:03;39.80;;;22.90;;
46290;SDS011;32023;44.444;26.006;2023-01-08T04:38:32;37.78;;;22.50;;
46290;SDS011;32023;44.444;26.006;2023-01-08T04:40:59;38.50;;;23.55;;
46290;SDS011;32023;44.444;26.006;2023-01-08T04:43:28;42.13;;;23.05;;
46290;SDS011;32023;44.444;26.006;2023-01-08T04:46:03;39.75;;;24.30;;
46290;SDS011;32023;44.444;26.006;2023-01-08T04:48:33;37.22;;;23.05;;
46290;SDS011;32023;44.444;26.006;2023-01-08T04:51:00;39.03;;;22.42;;
46290;SDS011;32023;44.444;26.006;2023-01-08T04:53:32;38.60;;;21.55;;
46290;SDS011;32023;44.444;26.006;2023-01-08T04:56:02;38.17;;;23.52;;
46290;SDS011;32023;44.444;26.006;2023-01-08T04:58:29;36.88;;;21.27;;
46290;SDS011;32023;44.444;26.006;2023-01-08T05:00:57;35.38;;;20.75;;
46290;SDS011;32023;44.444;26.006;2023-01-08T05:03:23;34.53;;;20.80;;
46290;SDS011;32023;44.444;26.006;2023-01-08T05:05:50;35.08;;;21.45;;
46290;SDS011;32023;44.444;26.006;2023-01-08T05:08:16;34.35;;;21.92;;
46290;SDS011;32023;44.444;26.006;2023-01-08T05:10:45;41.33;;;22.13;;
46290;SDS011;32023;44.444;26.006;2023-01-08T05:13:12;37.70;;;21.27;;
46290;SDS011;32023;44.444;26.006;2023-01-08T05:15:45;39.92;;;22.85;;
46290;SDS011;32023;44.444;26.006;2023-01-08T05:18:11;30.08;;;17.08;;
46290;SDS011;32023;44.444;26.006;2023-01-08T05:20:38;35.67;;;21.35;;
46290;SDS011;32023;44.444;26.006;2023-01-08T05:23:04;37.97;;;22.10;;
46290;SDS011;32023;44.444;26.006;2023-01-08T05:25:30;35.42;;;22.20;;
46290;SDS011;32023;44.444;26.006;2023-01-08T05:27:56;40.20;;;23.55;;
46290;SDS011;32023;44.444;26.006;2023-01-08T05:30:23;39.95;;;23.42;;
46290;SDS011;32023;44.444;26.006;2023-01-08T05:32:49;42.25;;;23.23;;
46290;SDS011;32023;44.444;26.006;2023-01-08T05:35:15;42.40;;;23.23;;
46290;SDS011;32023;44.444;26.006;2023-01-08T05:37:42;39.30;;;23.75;;
46290;SDS011;32023;44.444;26.006;2023-01-08T05:40:08;46.22;;;25.55;;
46290;SDS011;32023;44.444;26.006;2023-01-08T05:42:35;40.47;;;23.58;;
46290;SDS011;32023;44.444;26.006;2023-01-08T05:45:05;41.58;;;26.08;;
46290;SDS011;32023;44.444;26.006;2023-01-08T05:47:32;44.47;;;25.30;;
46290;SDS011;32023;44.444;26.006;2023-01-08T05:49:59;41.33;;;25.30;;
46290;SDS011;32023;44.444;26.006;2023-01-08T05:52:26;40.90;;;24.30;;
46290;SDS011;32023;44.444;26.006;2023-01-08T05:54:53;41.58;;;23.95;;
46290;SDS011;32023;44.444;26.006;2023-01-08T05:57:19;44.45;;;25.23;;
46290;SDS011;32023;44.444;26.006;2023-01-08T05:59:46;40.50;;;23.83;;
46290;SDS011;32023;44.444;26.006;2023-01-08T06:02:12;38.83;;;23.85;;
46290;SDS011;32023;44.444;26.006;2023-01-08T06:04:39;38.65;;;22.23;;
46290;SDS011;32023;44.444;26.006;2023-01-08T06:07:05;42.33;;;24.40;;
46290;SDS011;32023;44.444;26.006;2023-01-08T06:09:31;44.42;;;25.02;;
46290;SDS011;32023;44.444;26.006;2023-01-08T06:11:58;47.85;;;25.85;;
46290;SDS011;32023;44.444;26.006;2023-01-08T06:14:24;44.17;;;26.45;;
46290;SDS011;32023;44.444;26.006;2023-01-08T06:16:50;39.75;;;25.23;;
46290;SDS011;32023;44.444;26.006;2023-01-08T06:19:17;40.58;;;26.48;;
46290;SDS011;32023;44.444;26.006;2023-01-08T06:21:43;47.97;;;26.55;;
46290;SDS011;32023;44.444;26.006;2023-01-08T06:24:10;46.80;;;26.67;;
46290;SDS011;32023;44.444;26.006;2023-01-08T06:26:36;41.97;;;25.60;;
46290;SDS011;32023;44.444;26.006;2023-01-08T06:29:02;43.63;;;25.02;;
46290;SDS011;32023;44.444;26.006;2023-01-08T06:31:29;41.22;;;24.50;;
46290;SDS011;32023;44.444;26.006;2023-01-08T06:33:55;44.28;;;24.55;;
46290;SDS011;32023;44.444;26.006;2023-01-08T06:36:21;43.28;;;26.30;;
46290;SDS011;32023;44.444;26.006;2023-01-08T06:38:48;39.00;;;24.35;;
46290;SDS011;32023;44.444;26.006;2023-01-08T06:41:14;49.83;;;24.23;;
46290;SDS011;32023;44.444;26.006;2023-01-08T06:43:40;42.15;;;23.88;;
46290;SDS011;32023;44.444;26.006;2023-01-08T06:46:07;39.65;;;22.88;;
46290;SDS011;32023;44.444;26.006;2023-01-08T06:48:35;35.10;;;22.05;;
46290;SDS011;32023;44.444;26.006;2023-01-08T06:51:02;38.28;;;22.55;;
46290;SDS011;32023;44.444;26.006;2023-01-08T06:53:29;40.35;;;23.20;;
46290;SDS011;32023;44.444;26.006;2023-01-08T06:55:55;37.33;;;22.83;;
46290;SDS011;32023;44.444;26.006;2023-01-08T06:58:25;33.80;;;21.80;;
46290;SDS011;32023;44.444;26.006;2023-01-08T07:00:55;39.58;;;23.38;;
46290;SDS011;32023;44.444;26.006;2023-01-08T07:03:23;41.85;;;25.10;;
46290;SDS011;32023;44.444;26.006;2023-01-08T07:05:52;39.53;;;22.42;;
46290;SDS011;32023;44.444;26.006;2023-01-08T07:08:19;40.58;;;23.30;;
46290;SDS011;32023;44.444;26.006;2023-01-08T07:13:56;34.22;;;21.70;;
46290;SDS011;32023;44.444;26.006;2023-01-08T07:16:23;39.90;;;21.73;;
46290;SDS011;32023;44.444;26.006;2023-01-08T07:18:49;33.42;;;20.27;;
46290;SDS011;32023;44.444;26.006;2023-01-08T07:21:15;34.17;;;20.50;;
46290;SDS011;32023;44.444;26.006;2023-01-08T07:23:42;30.10;;;18.33;;
46290;SDS011;32023;44.444;26.006;2023-01-08T07:26:10;30.00;;;18.55;;
46290;SDS011;32023;44.444;26.006;2023-01-08T07:28:36;29.77;;;18.60;;
46290;SDS011;32023;44.444;26.006;2023-01-08T07:31:04;27.83;;;19.08;;
46290;SDS011;32023;44.444;26.006;2023-01-08T07:33:30;27.00;;;18.58;;
46290;SDS011;32023;44.444;26.006;2023-01-08T07:35:57;28.77;;;19.30;;
46290;SDS011;32023;44.444;26.006;2023-01-08T07:38:24;29.38;;;18.60;;
46290;SDS011;32023;44.444;26.006;2023-01-08T07:41:06;32.15;;;19.85;;
46290;SDS011;32023;44.444;26.006;2023-01-08T07:43:58;30.85;;;18.65;;
46290;SDS011;32023;44.444;26.006;2023-01-08T07:46:25;26.80;;;17.80;;
46290;SDS011;32023;44.444;26.006;2023-01-08T07:49:10;31.42;;;19.20;;
46290;SDS011;32023;44.444;26.006;2023-01-08T07:51:36;25.02;;;18.00;;
46290;SDS011;32023;44.444;26.006;2023-01-08T07:54:03;29.83;;;19.60;;
46290;SDS011;32023;44.444;26.006;2023-01-08T07:56:35;26.75;;;18.63;;
46290;SDS011;32023;44.444;26.006;2023-01-08T07:59:03;28.20;;;18.15;;
46290;SDS011;32023;44.444;26.006;2023-01-08T08:01:30;27.60;;;18.05;;
46290;SDS011;32023;44.444;26.006;2023-01-08T08:03:56;28.55;;;19.88;;
46290;SDS011;32023;44.444;26.006;2023-01-08T08:08:59;26.40;;;17.15;;
46290;SDS011;32023;44.444;26.006;2023-01-08T08:11:27;28.23;;;18.50;;
46290;SDS011;32023;44.444;26.006;2023-01-08T08:13:53;27.73;;;19.27;;
46290;SDS011;32023;44.444;26.006;2023-01-08T08:16:20;26.25;;;17.50;;
46290;SDS011;32023;44.444;26.006;2023-01-08T08:18:46;22.75;;;16.85;;
46290;SDS011;32023;44.444;26.006;2023-01-08T08:21:12;27.48;;;17.42;;
46290;SDS011;32023;44.444;26.006;2023-01-08T08:23:39;26.13;;;17.27;;
46290;SDS011;32023;44.444;26.006;2023-01-08T08:26:05;29.88;;;17.05;;
46290;SDS011;32023;44.444;26.006;2023-01-08T08:28:32;28.58;;;17.70;;
46290;SDS011;32023;44.444;26.006;2023-01-08T08:31:04;27.77;;;17.85;;
46290;SDS011;32023;44.444;26.006;2023-01-08T08:33:31;26.17;;;17.35;;
46290;SDS011;32023;44.444;26.006;2023-01-08T08:35:57;23.83;;;17.42;;
46290;SDS011;32023;44.444;26.006;2023-01-08T08:38:23;23.05;;;16.75;;
46290;SDS011;32023;44.444;26.006;2023-01-08T08:40:50;22.98;;;17.15;;
46290;SDS011;32023;44.444;26.006;2023-01-08T08:43:17;27.52;;;16.80;;
46290;SDS011;32023;44.444;26.006;2023-01-08T08:45:43;25.10;;;17.73;;
46290;SDS011;32023;44.444;26.006;2023-01-08T08:48:09;25.38;;;17.55;;
46290;SDS011;32023;44.444;26.006;2023-01-08T08:50:36;22.35;;;15.95;;
46290;SDS011;32023;44.444;26.006;2023-01-08T08:53:03;24.77;;;17.75;;
46290;SDS011;32023;44.444;26.006;2023-01-08T08:55:31;26.27;;;16.98;;
46290;SDS011;32023;44.444;26.006;2023-01-08T08:58:01;21.25;;;15.38;;
46290;SDS011;32023;44.444;26.006;2023-01-08T09:00:29;23.20;;;15.90;;
46290;SDS011;32023;44.444;26.006;2023-01-08T09:02:55;22.73;;;15.68;;
46290;SDS011;32023;44.444;26.006;2023-01-08T09:05:22;25.42;;;16.15;;
46290;SDS011;32023;44.444;26.006;2023-01-08T09:07:49;25.50;;;16.88;;
46290;SDS011;32023;44.444;26.006;2023-01-08T09:10:16;24.35;;;16.83;;
46290;SDS011;32023;44.444;26.006;2023-01-08T09:12:42;25.92;;;17.25;;
46290;SDS011;32023;44.444;26.006;2023-01-08T09:15:09;29.10;;;17.83;;
46290;SDS011;32023;44.444;26.006;2023-01-08T09:17:35;29.80;;;19.52;;
46290;SDS011;32023;44.444;26.006;2023-01-08T09:20:02;29.65;;;19.35;;
46290;SDS011;32023;44.444;26.006;2023-01-08T09:22:29;27.13;;;19.58;;
46290;SDS011;32023;44.444;26.006;2023-01-08T09:24:56;32.88;;;20.52;;
46290;SDS011;32023;44.444;26.006;2023-01-08T09:27:22;29.50;;;19.33;;
46290;SDS011;32023;44.444;26.006;2023-01-08T09:29:48;36.03;;;21.35;;
46290;SDS011;32023;44.444;26.006;2023-01-08T09:32:15;31.30;;;19.13;;
46290;SDS011;32023;44.444;26.006;2023-01-08T09:34:41;30.73;;;19.48;;
46290;SDS011;32023;44.444;26.006;2023-01-08T09:37:07;31.95;;;19.02;;
46290;SDS011;32023;44.444;26.006;2023-01-08T09:39:34;38.92;;;22.88;;
46290;SDS011;32023;44.444;26.006;2023-01-08T09:42:04;37.22;;;22.08;;
46290;SDS011;32023;44.444;26.006;2023-01-08T09:44:38;31.55;;;21.27;;
46290;SDS011;32023;44.444;26.006;2023-01-08T09:47:24;30.00;;;20.08;;
46290;SDS011;32023;44.444;26.006;2023-01-08T09:49:54;33.25;;;20.10;;
46290;SDS011;32023;44.444;26.006;2023-01-08T09:52:24;28.50;;;18.17;;
46290;SDS011;32023;44.444;26.006;2023-01-08T09:54:51;26.60;;;17.33;;
46290;SDS011;32023;44.444;26.006;2023-01-08T09:57:18;34.25;;;19.30;;
46290;SDS011;32023;44.444;26.006;2023-01-08T09:59:45;28.13;;;18.05;;
46290;SDS011;32023;44.444;26.006;2023-01-08T10:02:14;26.95;;;18.48;;
46290;SDS011;32023;44.444;26.006;2023-01-08T10:04:47;26.52;;;18.50;;
46290;SDS011;32023;44.444;26.006;2023-01-08T10:07:24;27.90;;;18.95;;
46290;SDS011;32023;44.444;26.006;2023-01-08T10:09:51;28.88;;;18.77;;
46290;SDS011;32023;44.444;26.006;2023-01-08T10:12:27;28.52;;;19.20;;
46290;SDS011;32023;44.444;26.006;2023-01-08T10:14:57;30.17;;;19.17;;
46290;SDS011;32023;44.444;26.006;2023-01-08T10:17:38;31.45;;;20.15;;
46290;SDS011;32023;44.444;26.006;2023-01-08T10:20:15;29.42;;;19.98;;
46290;SDS011;32023;44.444;26.006;2023-01-08T10:22:49;24.27;;;17.10;;
46290;SDS011;32023;44.444;26.006;2023-01-08T10:25:25;24.95;;;17.55;;
46290;SDS011;32023;44.444;26.006;2023-01-08T10:27:55;22.25;;;16.58;;
46290;SDS011;32023;44.444;26.006;2023-01-08T10:33:05;23.48;;;17.55;;
46290;SDS011;32023;44.444;26.006;2023-01-08T10:35:40;26.48;;;17.95;;
46290;SDS011;32023;44.444;26.006;2023-01-08T10:38:20;24.30;;;18.10;;
46290;SDS011;32023;44.444;26.006;2023-01-08T10:40:54;21.65;;;16.95;;
46290;SDS011;32023;44.444;26.006;2023-01-08T10:43:26;21.85;;;17.50;;
46290;SDS011;32023;44.444;26.006;2023-01-08T10:45:58;19.23;;;16.42;;
46290;SDS011;32023;44.444;26.006;2023-01-08T10:48:36;22.55;;;17.20;;
46290;SDS011;32023;44.444;26.006;2023-01-08T10:51:29;24.13;;;16.92;;
46290;SDS011;32023;44.444;26.006;2023-01-08T10:53:58;21.42;;;16.42;;
46290;SDS011;32023;44.444;26.006;2023-01-08T10:56:45;17.75;;;15.13;;
46290;SDS011;32023;44.444;26.006;2023-01-08T10:59:20;22.17;;;16.25;;
46290;SDS011;32023;44.444;26.006;2023-01-08T11:01:49;18.13;;;15.38;;
46290;SDS011;32023;44.444;26.006;2023-01-08T11:04:27;19.52;;;14.82;;
46290;SDS011;32023;44.444;26.006;2023-01-08T11:06:58;23.73;;;17.58;;
46290;SDS011;32023;44.444;26.006;2023-01-08T11:09:27;21.58;;;15.15;;
46290;SDS011;32023;44.444;26.006;2023-01-08T11:11:58;21.05;;;16.67;;
46290;SDS011;32023;44.444;26.006;2023-01-08T11:14:29;22.38;;;15.93;;
46290;SDS011;32023;44.444;26.006;2023-01-08T11:17:10;22.23;;;16.30;;
46290;SDS011;32023;44.444;26.006;2023-01-08T11:19:37;24.52;;;17.20;;
46290;SDS011;32023;44.444;26.006;2023-01-08T11:22:21;28.20;;;16.98;;
46290;SDS011;32023;44.444;26.006;2023-01-08T11:24:52;20.50;;;15.75;;
46290;SDS011;32023;44.444;26.006;2023-01-08T11:35:36;21.80;;;16.40;;
46290;SDS011;32023;44.444;26.006;2023-01-08T11:38:06;20.20;;;16.85;;
46290;SDS011;32023;44.444;26.006;2023-01-08T11:40:39;26.80;;;15.93;;
46290;SDS011;32023;44.444;26.006;2023-01-08T11:43:39;18.98;;;15.18;;
46290;SDS011;32023;44.444;26.006;2023-01-08T11:58:38;16.10;;;14.02;;
46290;SDS011;32023;44.444;26.006;2023-01-08T12:00:55;16.70;;;13.45;;
46290;SDS011;32023;44.444;26.006;2023-01-08T12:03:35;18.17;;;13.95;;
46290;SDS011;32023;44.444;26.006;2023-01-08T12:06:24;15.85;;;13.40;;
46290;SDS011;32023;44.444;26.006;2023-01-08T12:36:26;17.17;;;14.18;;
46290;SDS011;32023;44.444;26.006;2023-01-08T12:39:11;15.48;;;13.10;;
46290;SDS011;32023;44.444;26.006;2023-01-08T12:45:29;17.67;;;13.88;;
46290;SDS011;32023;44.444;26.006;2023-01-08T12:48:39;16.80;;;14.02;;
46290;SDS011;32023;44.444;26.006;2023-01-08T12:57:40;19.75;;;15.27;;
46290;SDS011;32023;44.444;26.006;2023-01-08T13:07:35;22.90;;;16.23;;
46290;SDS011;32023;44.444;26.006;2023-01-08T13:13:06;22.08;;;16.60;;
46290;SDS011;32023;44.444;26.006;2023-01-08T13:18:54;27.42;;;18.90;;
46290;SDS011;32023;44.444;26.006;2023-01-08T13:25:06;25.17;;;17.45;;
46290;SDS011;32023;44.444;26.006;2023-01-08T13:30:54;31.65;;;19.10;;
46290;SDS011;32023;44.444;26.006;2023-01-08T13:33:41;33.83;;;21.45;;
46290;SDS011;32023;44.444;26.006;2023-01-08T13:36:20;38.75;;;23.23;;
46290;SDS011;32023;44.444;26.006;2023-01-08T13:39:00;30.17;;;19.00;;
46290;SDS011;32023;44.444;26.006;2023-01-08T13:44:50;34.00;;;20.45;;
46290;SDS011;32023;44.444;26.006;2023-01-08T13:47:40;30.45;;;21.27;;
46290;SDS011;32023;44.444;26.006;2023-01-08T13:50:19;30.15;;;21.33;;
46290;SDS011;32023;44.444;26.006;2023-01-08T13:53:02;32.15;;;20.42;;
46290;SDS011;32023;44.444;26.006;2023-01-08T13:55:33;31.83;;;21.67;;
46290;SDS011;32023;44.444;26.006;2023-01-08T13:58:23;32.78;;;20.60;;
46290;SDS011;32023;44.444;26.006;2023-01-08T14:00:52;37.08;;;22.30;;
46290;SDS011;32023;44.444;26.006;2023-01-08T14:03:27;34.70;;;22.45;;
46290;SDS011;32023;44.444;26.006;2023-01-08T14:06:20;36.53;;;21.45;;
46290;SDS011;32023;44.444;26.006;2023-01-08T14:09:00;35.13;;;22.58;;
46290;SDS011;32023;44.444;26.006;2023-01-08T14:14:00;38.97;;;22.50;;
46290;SDS011;32023;44.444;26.006;2023-01-08T14:16:36;39.83;;;23.38;;
46290;SDS011;32023;44.444;26.006;2023-01-08T14:19:07;43.95;;;24.95;;
46290;SDS011;32023;44.444;26.006;2023-01-08T14:21:39;52.13;;;30.92;;
46290;SDS011;32023;44.444;26.006;2023-01-08T14:24:11;47.15;;;27.35;;
46290;SDS011;32023;44.444;26.006;2023-01-08T14:26:41;45.67;;;27.30;;
46290;SDS011;32023;44.444;26.006;2023-01-08T14:29:12;48.75;;;26.80;;
46290;SDS011;32023;44.444;26.006;2023-01-08T14:32:01;44.10;;;27.30;;
46290;SDS011;32023;44.444;26.006;2023-01-08T14:34:28;43.75;;;26.60;;
46290;SDS011;32023;44.444;26.006;2023-01-08T14:36:56;44.65;;;24.88;;
46290;SDS011;32023;44.444;26.006;2023-01-08T14:39:24;40.63;;;24.60;;
46290;SDS011;32023;44.444;26.006;2023-01-08T14:47:57;37.50;;;22.38;;
46290;SDS011;32023;44.444;26.006;2023-01-08T14:50:25;35.10;;;22.85;;
46290;SDS011;32023;44.444;26.006;2023-01-08T14:52:57;43.30;;;25.95;;
46290;SDS011;32023;44.444;26.006;2023-01-08T14:55:48;39.08;;;23.67;;
46290;SDS011;32023;44.444;26.006;2023-01-08T14:58:46;40.92;;;23.17;;
46290;SDS011;32023;44.444;26.006;2023-01-08T15:01:28;39.80;;;23.83;;
46290;SDS011;32023;44.444;26.006;2023-01-08T15:04:16;38.20;;;24.15;;
46290;SDS011;32023;44.444;26.006;2023-01-08T15:07:13;41.40;;;24.35;;
46290;SDS011;32023;44.444;26.006;2023-01-08T15:09:57;46.38;;;26.33;;
46290;SDS011;32023;44.444;26.006;2023-01-08T15:12:31;44.08;;;25.33;;
46290;SDS011;32023;44.444;26.006;2023-01-08T15:17:54;47.10;;;25.98;;
46290;SDS011;32023;44.444;26.006;2023-01-08T15:20:24;62.30;;;32.00;;
46290;SDS011;32023;44.444;26.006;2023-01-08T15:22:56;66.80;;;33.42;;
46290;SDS011;32023;44.444;26.006;2023-01-08T15:25:30;59.83;;;29.92;;
46290;SDS011;32023;44.444;26.006;2023-01-08T15:30:35;47.17;;;26.23;;
46290;SDS011;32023;44.444;26.006;2023-01-08T15:33:19;48.83;;;27.80;;
46290;SDS011;32023;44.444;26.006;2023-01-08T15:35:58;43.60;;;26.05;;
46290;SDS011;32023;44.444;26.006;2023-01-08T15:38:25;44.38;;;24.52;;
46290;SDS011;32023;44.444;26.006;2023-01-08T15:40:51;39.40;;;24.38;;
46290;SDS011;32023;44.444;26.006;2023-01-08T15:43:23;47.03;;;26.85;;
46290;SDS011;32023;44.444;26.006;2023-01-08T15:45:56;55.33;;;29.48;;
46290;SDS011;32023;44.444;26.006;2023-01-08T15:48:35;45.88;;;26.25;;
46290;SDS011;32023;44.444;26.006;2023-01-08T15:51:01;52.50;;;28.00;;
46290;SDS011;32023;44.444;26.006;2023-01-08T15:53:28;48.20;;;29.40;;
46290;SDS011;32023;44.444;26.006;2023-01-08T15:55:57;54.83;;;30.00;;
46290;SDS011;32023;44.444;26.006;2023-01-08T15:58:35;58.20;;;31.65;;
46290;SDS011;32023;44.444;26.006;2023-01-08T16:01:04;52.80;;;30.83;;
46290;SDS011;32023;44.444;26.006;2023-01-08T16:03:40;56.20;;;30.77;;
46290;SDS011;32023;44.444;26.006;2023-01-08T16:06:09;63.10;;;31.55;;
46290;SDS011;32023;44.444;26.006;2023-01-08T16:08:44;42.73;;;22.47;;
46290;SDS011;32023;44.444;26.006;2023-01-08T16:11:18;48.22;;;28.98;;
46290;SDS011;32023;44.444;26.006;2023-01-08T16:13:53;50.80;;;30.42;;
46290;SDS011;32023;44.444;26.006;2023-01-08T16:16:20;52.05;;;29.33;;
46290;SDS011;32023;44.444;26.006;2023-01-08T16:18:59;48.45;;;29.65;;
46290;SDS011;32023;44.444;26.006;2023-01-08T16:21:29;50.03;;;29.23;;
46290;SDS011;32023;44.444;26.006;2023-01-08T16:23:57;51.00;;;30.33;;
46290;SDS011;32023;44.444;26.006;2023-01-08T16:26:32;48.53;;;29.30;;
46290;SDS011;32023;44.444;26.006;2023-01-08T16:29:03;52.22;;;29.95;;
46290;SDS011;32023;44.444;26.006;2023-01-08T16:31:32;53.63;;;30.98;;
46290;SDS011;32023;44.444;26.006;2023-01-08T16:34:14;51.33;;;30.52;;
46290;SDS011;32023;44.444;26.006;2023-01-08T16:36:47;58.15;;;31.88;;
46290;SDS011;32023;44.444;26.006;2023-01-08T16:39:13;60.42;;;33.65;;